Terminal Aerodrome Forecast
Issued by NWS Charleston, WV

Current Version | Previous Version | Graphics & Text | Print | Product List | Glossary On
Versions: 1 2 3 4 5 6 7 8 9 10 11 12 13 14 15 16 17 18 19 20 21 22 23
065
FTUS41 KRLX 272333
TAFCRW
TAF
KCRW 272333Z 2800/2824 VRB03KT P6SM +SHRA VCTS BKN035CB
      TEMPO 2800/2803 3SM +SHRA BKN025
     FM280300 VRB04KT 6SM BR BKN040
     FM280800 VRB04KT 5SM +SHRA BR VCTS BKN025CB
     FM281600 21008KT P6SM VCTS BKN035CB
     FM282000 23006KT 6SM +SHRA BR VCTS BKN035CB=

USA.gov is the U.S. government's official web portal to all federal, state and local government web resources and services.